Bei Facebook empfehlenBei Twitter postenGoogle plusPinterest

Das Wetter im Erzgebirge am 04.06.2016

Wetter und Klima am 04.06.2016 Holzhau im Erzgebirge (630m ü.NN)
Letzte gemessene Temperatur und Uhrzeit der Messung23:45:00 Uhr11.90 °C
Temperatur (Maximum / Höchstwert) und Uhrzeit der Messung15:15:00 Uhr22.20 °C
Temperatur (Minimum / Tiefstwert) und Uhrzeit der Messung05:15:0010.20 °C
Errechneter Absolutwert der Temperaturschwankungen zwischen Tmin und Tmax des Tages12.00 K
Errechnete Tagesmitteltemperatur16.20938 °C
Gesamt - Niederschlag des Tages (in flüssiger Form)1.04 Liter / m²
Luftdruck (Maximum / Höchstwert) und Zeitpunkt der Messung23:30:00 Uhr1012.20 hPa
Luftdruck (Minimum / Tiefstwert) und Zeitpunkt der Messung04:00:00 Uhr1008.90 hPa
Errechneter Absolutwert der Luftdruckschwankungen des Tages3.30 hPa
Höchste gemessene Windgeschwindigkeit und Uhrzeit der Messung23:45:00 Uhr0.00 km/h
Errechnete Windhäufigkeit in Relation zu den Messwerten des Tages0.00000 %
Niedrigste Windkühle (Windchill) und Zeitpunkt der Messung05:15:00 Uhr10.20 °C
Taupunkt (Maximum / Höchstwert) und Uhrzeit der Messung13:30:00 Uhr17.90 °C
Taupunkt (Minimum / Tiefstwert) und Uhrzeit der Messung05:15:009.40 °C
Anzahl der automatisch eingelesenen Messwerte 96

Detaillierte Wetter- und Klima- Messwerte für den 04.06.2016 in Holzhau im Erzgebirge (630m ü.NN)
ZeitTemperaturLuftdruckRel. LuftfeuchteWindWindrichtungWindchillTaupunktNiederschlag l/m²
23:45:0011.90 °C1012.10 hPa92.00 %10.60 °C1.04
23:30:0012.20 °C1012.20 hPa92.00 %10.90 °C1.04
23:15:0012.30 °C1012.00 hPa92.00 %11.00 °C1.04
23:00:0012.60 °C1011.90 hPa91.00 %11.20 °C1.04
22:45:0012.90 °C1012.00 hPa91.00 %11.50 °C1.04
22:30:0013.20 °C1012.00 hPa90.00 %11.60 °C1.04
22:15:0013.40 °C1011.70 hPa90.00 %11.80 °C1.04
22:00:0013.90 °C1011.60 hPa90.00 %12.30 °C1.04
21:45:0014.30 °C1011.60 hPa89.00 %12.50 °C1.04
21:30:0014.60 °C1011.60 hPa89.00 %12.80 °C1.04
21:15:0014.90 °C1011.20 hPa88.00 %12.90 °C1.04
21:00:0015.50 °C1011.10 hPa87.00 %13.30 °C1.04
20:45:0016.00 °C1010.80 hPa87.00 %13.80 °C1.04
20:30:0016.60 °C1010.80 hPa86.00 %14.20 °C1.04
20:15:0017.10 °C1010.70 hPa85.00 %14.60 °C1.04
20:00:0017.90 °C1010.60 hPa83.00 %15.00 °C1.04
19:45:0018.90 °C1010.50 hPa82.00 %15.80 °C1.04
19:30:0019.60 °C1010.60 hPa81.00 %16.30 °C1.04
19:15:0020.20 °C1010.50 hPa81.00 %16.80 °C1.04
19:00:0020.30 °C1010.30 hPa80.00 %16.70 °C1.04
18:45:0020.40 °C1010.30 hPa79.00 %16.60 °C1.04
18:30:0020.40 °C1010.20 hPa80.00 %16.80 °C1.04
18:15:0020.40 °C1010.30 hPa80.00 %16.80 °C1.04
18:00:0020.30 °C1010.20 hPa81.00 %16.90 °C1.04
17:45:0019.60 °C1010.30 hPa84.00 %16.80 °C1.04
17:30:0018.80 °C1010.10 hPa84.00 %16.00 °C1.04
17:15:0018.40 °C1010.20 hPa84.00 %15.60 °C1.04
17:00:0017.80 °C1010.40 hPa84.00 %15.10 °C1.04
16:45:0017.60 °C1010.50 hPa82.00 %14.50 °C1.04
16:30:0017.80 °C1010.50 hPa81.00 %14.50 °C0.52
16:15:0018.00 °C1010.50 hPa78.00 %14.10 °C0.52
16:00:0019.20 °C1010.50 hPa73.00 %14.20 °C0.52
15:45:0021.20 °C1010.60 hPa70.00 %15.50 °C0.52
15:30:0021.80 °C1010.60 hPa70.00 %16.10 °C0.52
15:15:0022.20 °C1010.70 hPa69.00 %16.20 °C0.52
15:00:0021.80 °C1010.50 hPa73.00 %16.70 °C0.52
14:45:0020.90 °C1010.60 hPa77.00 %16.70 °C0.52
14:30:0020.10 °C1010.80 hPa79.00 %16.30 °C0.52
14:15:0019.60 °C1010.60 hPa80.00 %16.10 °C0.52
14:00:0020.10 °C1010.80 hPa76.00 %15.70 °C0.52
13:45:0021.80 °C1010.70 hPa76.00 %17.40 °C0.52
13:30:0021.10 °C1010.70 hPa82.00 %17.90 °C0.52
13:15:0018.90 °C1010.80 hPa86.00 %16.50 °C 
13:00:0017.30 °C1011.00 hPa85.00 %14.80 °C 
12:45:0016.90 °C1011.10 hPa82.00 %13.80 °C 
12:30:0017.60 °C1010.90 hPa78.00 %13.70 °C 
12:15:0018.90 °C1010.70 hPa76.00 %14.60 °C 
12:00:0019.40 °C1010.70 hPa73.00 %14.40 °C 
11:45:0020.50 °C1010.60 hPa72.00 %15.30 °C 
11:30:0020.90 °C1010.40 hPa73.00 %15.90 °C 
11:15:0020.70 °C1010.50 hPa74.00 %15.90 °C 
11:00:0020.30 °C1010.50 hPa75.00 %15.70 °C 
10:45:0019.80 °C1010.40 hPa76.00 %15.40 °C 
10:30:0019.90 °C1010.40 hPa76.00 %15.50 °C 
10:15:0019.80 °C1010.00 hPa78.00 %15.90 °C 
10:00:0019.40 °C1010.10 hPa80.00 %15.90 °C 
09:45:0019.30 °C1010.00 hPa82.00 %16.20 °C 
09:30:0018.90 °C1010.00 hPa86.00 %16.50 °C 
09:15:0018.90 °C1009.80 hPa87.00 %16.70 °C 
09:00:0018.40 °C1009.80 hPa89.00 %16.60 °C 
08:45:0018.30 °C1009.60 hPa90.00 %16.60 °C 
08:30:0018.30 °C1009.60 hPa92.00 %17.00 °C 
08:15:0017.90 °C1009.80 hPa93.00 %16.80 °C 
08:00:0017.90 °C1009.70 hPa94.00 %16.90 °C 
07:45:0017.60 °C1009.50 hPa95.00 %16.80 °C 
07:30:0017.10 °C1009.50 hPa96.00 %16.50 °C 
07:15:0015.60 °C1009.60 hPa97.00 %15.10 °C 
07:00:0012.80 °C1009.50 hPa96.00 %12.20 °C 
06:45:0012.40 °C1009.50 hPa96.00 %11.80 °C 
06:30:0011.90 °C1009.40 hPa96.00 %11.30 °C 
06:15:0011.30 °C1009.50 hPa96.00 %10.70 °C 
06:00:0010.70 °C1009.50 hPa95.00 %9.90 °C 
05:45:0010.40 °C1009.40 hPa95.00 %9.60 °C 
05:30:0010.30 °C1009.30 hPa95.00 %9.50 °C 
05:15:0010.20 °C1009.30 hPa95.00 %9.40 °C 
05:00:0010.50 °C1009.10 hPa95.00 %9.70 °C 
04:45:0010.80 °C1009.20 hPa95.00 %10.00 °C 
04:30:0011.20 °C1009.10 hPa95.00 %10.40 °C 
04:15:0011.60 °C1009.00 hPa95.00 %10.80 °C 
04:00:0011.90 °C1008.90 hPa95.00 %11.10 °C 
03:45:0012.10 °C1009.10 hPa95.00 %11.30 °C 
03:30:0012.10 °C1009.10 hPa95.00 %11.30 °C 
03:15:0012.30 °C1009.30 hPa95.00 %11.50 °C 
03:00:0012.30 °C1009.30 hPa95.00 %11.50 °C 
02:45:0012.30 °C1009.00 hPa94.00 %11.40 °C 
02:30:0012.30 °C1009.30 hPa94.00 %11.40 °C 
02:15:0012.30 °C1009.30 hPa94.00 %11.40 °C 
02:00:0012.40 °C1009.20 hPa94.00 %11.50 °C 
01:45:0012.20 °C1009.00 hPa94.00 %11.30 °C 
01:30:0012.10 °C1009.10 hPa94.00 %11.20 °C 
01:15:0012.10 °C1009.30 hPa94.00 %11.20 °C 
01:00:0011.80 °C1009.10 hPa94.00 %10.90 °C 
00:45:0011.80 °C1009.20 hPa94.00 %10.90 °C 
00:30:0011.80 °C1009.30 hPa93.00 %10.70 °C 
00:15:0011.90 °C1009.30 hPa93.00 %10.80 °C 
00:00:0012.20 °C1009.30 hPa93.00 %11.10 °C 

Permanenter Link zu dieser Seite: Wetter im Erzgebirge am 04.06.2016
Performance-Info: Die Erstellung der Seite / Statistik(en) / Tabelle(n) erforderte 5 Datenbankserver-Abfrage(n) und dauerte 101 Millisekunden. (Dieser Messwert ist von der Gesamt-Auslastung des Servers abhängig.)
Erzgebirge - Wetter | Erzgebirge - Wetter (Mobilgeräte) | Komplette Klimadatenbank